sensor_id;sensor_type;location;lat;lon;timestamp;temperature;humidity
53675;DHT22;39574;50.534;8.500;2023-01-08T00:02:26;10.0;99.9
53675;DHT22;39574;50.534;8.500;2023-01-08T00:07:26;10.0;99.9
53675;DHT22;39574;50.534;8.500;2023-01-08T00:12:28;9.9;99.9
53675;DHT22;39574;50.534;8.500;2023-01-08T00:17:29;9.9;99.9
53675;DHT22;39574;50.534;8.500;2023-01-08T00:22:41;10.0;99.9
53675;DHT22;39574;50.534;8.500;2023-01-08T00:32:21;10.0;99.9
53675;DHT22;39574;50.534;8.500;2023-01-08T00:37:22;10.0;99.9
53675;DHT22;39574;50.534;8.500;2023-01-08T00:42:34;10.0;99.9
53675;DHT22;39574;50.534;8.500;2023-01-08T00:47:37;10.1;99.9
53675;DHT22;39574;50.534;8.500;2023-01-08T00:52:37;10.1;99.9
53675;DHT22;39574;50.534;8.500;2023-01-08T01:02:03;10.1;99.9
53675;DHT22;39574;50.534;8.500;2023-01-08T01:07:15;10.1;99.9
53675;DHT22;39574;50.534;8.500;2023-01-08T01:12:18;10.1;99.9
53675;DHT22;39574;50.534;8.500;2023-01-08T01:17:29;10.1;99.9
53675;DHT22;39574;50.534;8.500;2023-01-08T01:22:32;10.1;99.9
53675;DHT22;39574;50.534;8.500;2023-01-08T01:31:50;10.1;99.9
53675;DHT22;39574;50.534;8.500;2023-01-08T01:36:50;10.1;99.9
53675;DHT22;39574;50.534;8.500;2023-01-08T01:41:57;10.1;99.9
53675;DHT22;39574;50.534;8.500;2023-01-08T01:47:23;10.1;99.9
53675;DHT22;39574;50.534;8.500;2023-01-08T01:56:54;10.2;99.9
53675;DHT22;39574;50.534;8.500;2023-01-08T02:02:05;10.2;99.9
53675;DHT22;39574;50.534;8.500;2023-01-08T02:07:09;10.3;99.9
53675;DHT22;39574;50.534;8.500;2023-01-08T02:12:09;10.3;99.9
53675;DHT22;39574;50.534;8.500;2023-01-08T02:17:19;10.3;99.9
53675;DHT22;39574;50.534;8.500;2023-01-08T02:22:25;10.3;99.9
53675;DHT22;39574;50.534;8.500;2023-01-08T02:31:33;10.3;99.9
53675;DHT22;39574;50.534;8.500;2023-01-08T02:36:47;10.4;99.9
53675;DHT22;39574;50.534;8.500;2023-01-08T02:42:02;10.4;99.9
53675;DHT22;39574;50.534;8.500;2023-01-08T02:47:14;10.4;99.9
53675;DHT22;39574;50.534;8.500;2023-01-08T02:52:17;10.4;99.9
53675;DHT22;39574;50.534;8.500;2023-01-08T03:01:43;10.4;99.9
53675;DHT22;39574;50.534;8.500;2023-01-08T03:06:56;10.4;99.9
53675;DHT22;39574;50.534;8.500;2023-01-08T03:11:59;10.4;99.9
53675;DHT22;39574;50.534;8.500;2023-01-08T03:17:07;10.3;99.9
53675;DHT22;39574;50.534;8.500;2023-01-08T03:22:07;10.3;99.9
53675;DHT22;39574;50.534;8.500;2023-01-08T03:31:37;10.2;99.9
53675;DHT22;39574;50.534;8.500;2023-01-08T03:36:38;10.1;99.9
53675;DHT22;39574;50.534;8.500;2023-01-08T03:41:47;10.0;99.9
53675;DHT22;39574;50.534;8.500;2023-01-08T03:46:53;10.0;99.9
53675;DHT22;39574;50.534;8.500;2023-01-08T03:52:00;10.0;99.9
53675;DHT22;39574;50.534;8.500;2023-01-08T03:57:02;9.8;99.9
53675;DHT22;39574;50.534;8.500;2023-01-08T04:02:03;9.8;99.9
53675;DHT22;39574;50.534;8.500;2023-01-08T04:11:12;9.8;99.9
53675;DHT22;39574;50.534;8.500;2023-01-08T04:16:29;9.7;99.9
53675;DHT22;39574;50.534;8.500;2023-01-08T04:21:40;9.7;99.9
53675;DHT22;39574;50.534;8.500;2023-01-08T04:26:41;9.7;99.9
53675;DHT22;39574;50.534;8.500;2023-01-08T04:31:54;9.7;99.9
53675;DHT22;39574;50.534;8.500;2023-01-08T04:41:24;9.7;99.9
53675;DHT22;39574;50.534;8.500;2023-01-08T04:46:37;9.6;99.9
53675;DHT22;39574;50.534;8.500;2023-01-08T04:51:51;9.5;99.9
53675;DHT22;39574;50.534;8.500;2023-01-08T05:01:21;9.6;99.9
53675;DHT22;39574;50.534;8.500;2023-01-08T05:06:23;9.6;99.9
53675;DHT22;39574;50.534;8.500;2023-01-08T05:11:33;9.6;99.9
53675;DHT22;39574;50.534;8.500;2023-01-08T05:16:35;9.6;99.9
53675;DHT22;39574;50.534;8.500;2023-01-08T05:21:46;9.5;99.9
53675;DHT22;39574;50.534;8.500;2023-01-08T05:26:48;9.6;99.9
53675;DHT22;39574;50.534;8.500;2023-01-08T05:36:14;9.6;99.9
53675;DHT22;39574;50.534;8.500;2023-01-08T05:41:25;9.6;99.9
53675;DHT22;39574;50.534;8.500;2023-01-08T05:46:38;9.6;99.9
53675;DHT22;39574;50.534;8.500;2023-01-08T05:56:37;9.6;99.9
53675;DHT22;39574;50.534;8.500;2023-01-08T06:06:09;9.6;99.9
53675;DHT22;39574;50.534;8.500;2023-01-08T06:11:21;9.6;99.9
53675;DHT22;39574;50.534;8.500;2023-01-08T06:16:33;9.5;99.9
53675;DHT22;39574;50.534;8.500;2023-01-08T06:21:34;9.6;99.9
53675;DHT22;39574;50.534;8.500;2023-01-08T06:26:37;9.6;99.9
53675;DHT22;39574;50.534;8.500;2023-01-08T06:36:15;9.7;99.9
53675;DHT22;39574;50.534;8.500;2023-01-08T06:41:16;9.7;99.9
53675;DHT22;39574;50.534;8.500;2023-01-08T06:46:17;9.7;99.9
53675;DHT22;39574;50.534;8.500;2023-01-08T06:51:27;9.7;99.9
53675;DHT22;39574;50.534;8.500;2023-01-08T06:56:28;9.8;99.9
53675;DHT22;39574;50.534;8.500;2023-01-08T07:01:29;9.8;99.9
53675;DHT22;39574;50.534;8.500;2023-01-08T07:06:29;9.8;99.9
53675;DHT22;39574;50.534;8.500;2023-01-08T07:15:55;9.6;99.9
53675;DHT22;39574;50.534;8.500;2023-01-08T07:20:58;9.5;99.9
53675;DHT22;39574;50.534;8.500;2023-01-08T07:26:16;9.4;99.9
53675;DHT22;39574;50.534;8.500;2023-01-08T07:31:18;9.3;99.9
53675;DHT22;39574;50.534;8.500;2023-01-08T07:36:22;9.3;99.9
53675;DHT22;39574;50.534;8.500;2023-01-08T07:45:51;9.3;99.9
53675;DHT22;39574;50.534;8.500;2023-01-08T07:51:06;9.3;99.9
53675;DHT22;39574;50.534;8.500;2023-01-08T07:56:16;9.3;99.9
53675;DHT22;39574;50.534;8.500;2023-01-08T08:01:17;9.3;99.9
53675;DHT22;39574;50.534;8.500;2023-01-08T08:06:19;9.3;99.9
53675;DHT22;39574;50.534;8.500;2023-01-08T08:15:26;9.4;99.9
53675;DHT22;39574;50.534;8.500;2023-01-08T08:20:43;9.4;99.9
53675;DHT22;39574;50.534;8.500;2023-01-08T08:25:43;9.4;99.9
53675;DHT22;39574;50.534;8.500;2023-01-08T08:30:53;9.4;99.9
53675;DHT22;39574;50.534;8.500;2023-01-08T08:35:55;9.4;99.9
53675;DHT22;39574;50.534;8.500;2023-01-08T08:41:09;9.5;99.9
53675;DHT22;39574;50.534;8.500;2023-01-08T08:50:29;9.5;99.9
53675;DHT22;39574;50.534;8.500;2023-01-08T08:55:38;9.5;99.9
53675;DHT22;39574;50.534;8.500;2023-01-08T09:00:40;9.4;99.9
53675;DHT22;39574;50.534;8.500;2023-01-08T09:05:49;9.4;99.9
53675;DHT22;39574;50.534;8.500;2023-01-08T09:11:01;9.5;99.9
53675;DHT22;39574;50.534;8.500;2023-01-08T09:16:02;9.4;99.9
53675;DHT22;39574;50.534;8.500;2023-01-08T09:21:03;9.4;99.9
53675;DHT22;39574;50.534;8.500;2023-01-08T09:26:04;9.4;99.9
53675;DHT22;39574;50.534;8.500;2023-01-08T09:35:11;9.4;99.9
53675;DHT22;39574;50.534;8.500;2023-01-08T09:40:26;9.4;99.9
53675;DHT22;39574;50.534;8.500;2023-01-08T09:45:29;9.4;99.9
53675;DHT22;39574;50.534;8.500;2023-01-08T09:50:34;9.5;99.9
53675;DHT22;39574;50.534;8.500;2023-01-08T09:55:44;9.6;99.9
53675;DHT22;39574;50.534;8.500;2023-01-08T10:00:53;9.6;99.9
53675;DHT22;39574;50.534;8.500;2023-01-08T10:05:53;9.8;99.9
53675;DHT22;39574;50.534;8.500;2023-01-08T10:10:53;9.7;99.9
53675;DHT22;39574;50.534;8.500;2023-01-08T10:20:07;9.8;99.9
53675;DHT22;39574;50.534;8.500;2023-01-08T10:25:22;9.8;99.9
53675;DHT22;39574;50.534;8.500;2023-01-08T10:30:38;9.8;99.9
53675;DHT22;39574;50.534;8.500;2023-01-08T10:35:51;9.8;99.9
53675;DHT22;39574;50.534;8.500;2023-01-08T10:40:50;9.7;99.9
53675;DHT22;39574;50.534;8.500;2023-01-08T10:50:18;9.8;99.9
53675;DHT22;39574;50.534;8.500;2023-01-08T10:59:54;9.9;99.9
53675;DHT22;39574;50.534;8.500;2023-01-08T11:05:13;10.1;99.9
53675;DHT22;39574;50.534;8.500;2023-01-08T11:10:28;10.3;99.9
53675;DHT22;39574;50.534;8.500;2023-01-08T11:15:40;10.3;99.9
53675;DHT22;39574;50.534;8.500;2023-01-08T11:25:10;10.4;99.9
53675;DHT22;39574;50.534;8.500;2023-01-08T11:30:26;10.5;99.9
53675;DHT22;39574;50.534;8.500;2023-01-08T11:35:38;10.5;99.9
53675;DHT22;39574;50.534;8.500;2023-01-08T11:45:09;10.6;99.9
53675;DHT22;39574;50.534;8.500;2023-01-08T11:50:18;10.7;99.9
53675;DHT22;39574;50.534;8.500;2023-01-08T11:55:37;10.8;99.9
53675;DHT22;39574;50.534;8.500;2023-01-08T12:05:21;10.8;99.9
53675;DHT22;39574;50.534;8.500;2023-01-08T12:10:17;10.6;99.9
53675;DHT22;39574;50.534;8.500;2023-01-08T12:15:31;10.6;99.9
53675;DHT22;39574;50.534;8.500;2023-01-08T12:20:31;10.5;99.9
53675;DHT22;39574;50.534;8.500;2023-01-08T12:25:36;10.5;99.9
53675;DHT22;39574;50.534;8.500;2023-01-08T12:34:57;10.5;99.9
53675;DHT22;39574;50.534;8.500;2023-01-08T12:40:12;10.7;99.9
53675;DHT22;39574;50.534;8.500;2023-01-08T12:45:13;10.7;99.9
53675;DHT22;39574;50.534;8.500;2023-01-08T12:50:30;10.7;99.9
53675;DHT22;39574;50.534;8.500;2023-01-08T12:59:53;10.7;99.9
53675;DHT22;39574;50.534;8.500;2023-01-08T13:05:11;10.6;99.9
53675;DHT22;39574;50.534;8.500;2023-01-08T13:10:19;10.5;99.9
53675;DHT22;39574;50.534;8.500;2023-01-08T13:15:21;10.6;99.9
53675;DHT22;39574;50.534;8.500;2023-01-08T13:24:28;10.6;99.9
53675;DHT22;39574;50.534;8.500;2023-01-08T13:29:59;10.6;99.9
53675;DHT22;39574;50.534;8.500;2023-01-08T13:35:18;10.8;99.9
53675;DHT22;39574;50.534;8.500;2023-01-08T13:40:48;11.0;99.9
53675;DHT22;39574;50.534;8.500;2023-01-08T13:45:18;11.4;99.9
53675;DHT22;39574;50.534;8.500;2023-01-08T13:54:24;11.8;99.9
53675;DHT22;39574;50.534;8.500;2023-01-08T13:59:42;11.7;99.9
53675;DHT22;39574;50.534;8.500;2023-01-08T14:04:47;11.4;99.9
53675;DHT22;39574;50.534;8.500;2023-01-08T14:09:49;11.1;99.9
53675;DHT22;39574;50.534;8.500;2023-01-08T14:14:50;10.9;99.9
53675;DHT22;39574;50.534;8.500;2023-01-08T14:19:55;10.7;99.9
53675;DHT22;39574;50.534;8.500;2023-01-08T14:25:07;10.6;99.9
53675;DHT22;39574;50.534;8.500;2023-01-08T14:34:17;10.5;99.9
53675;DHT22;39574;50.534;8.500;2023-01-08T14:39:34;10.8;99.9
53675;DHT22;39574;50.534;8.500;2023-01-08T14:44:35;10.9;99.9
53675;DHT22;39574;50.534;8.500;2023-01-08T14:49:46;11.2;99.9
53675;DHT22;39574;50.534;8.500;2023-01-08T14:54:49;11.6;99.9
53675;DHT22;39574;50.534;8.500;2023-01-08T14:59:58;11.5;99.9
53675;DHT22;39574;50.534;8.500;2023-01-08T15:05:03;11.3;99.9
53675;DHT22;39574;50.534;8.500;2023-01-08T15:14:11;10.9;99.9
53675;DHT22;39574;50.534;8.500;2023-01-08T15:19:38;10.5;99.9
53675;DHT22;39574;50.534;8.500;2023-01-08T15:24:42;10.3;99.9
53675;DHT22;39574;50.534;8.500;2023-01-08T15:29:54;10.1;99.9
53675;DHT22;39574;50.534;8.500;2023-01-08T15:34:55;9.9;99.9
53675;DHT22;39574;50.534;8.500;2023-01-08T15:44:22;9.8;99.9
53675;DHT22;39574;50.534;8.500;2023-01-08T15:49:23;9.7;99.9
53675;DHT22;39574;50.534;8.500;2023-01-08T15:54:34;9.7;99.9
53675;DHT22;39574;50.534;8.500;2023-01-08T15:59:48;9.7;99.9
53675;DHT22;39574;50.534;8.500;2023-01-08T16:09:17;9.7;99.9
53675;DHT22;39574;50.534;8.500;2023-01-08T16:14:20;9.8;99.9
53675;DHT22;39574;50.534;8.500;2023-01-08T16:19:33;9.8;99.9
53675;DHT22;39574;50.534;8.500;2023-01-08T16:24:45;9.8;99.9
53675;DHT22;39574;50.534;8.500;2023-01-08T16:34:14;9.7;99.9
53675;DHT22;39574;50.534;8.500;2023-01-08T16:39:23;9.6;99.9
53675;DHT22;39574;50.534;8.500;2023-01-08T16:44:26;9.6;99.9
53675;DHT22;39574;50.534;8.500;2023-01-08T16:49:27;9.6;99.9
53675;DHT22;39574;50.534;8.500;2023-01-08T16:54:35;9.6;99.9
53675;DHT22;39574;50.534;8.500;2023-01-08T16:59:35;9.6;99.9
53675;DHT22;39574;50.534;8.500;2023-01-08T17:04:37;9.6;99.9
53675;DHT22;39574;50.534;8.500;2023-01-08T17:14:05;9.5;99.9
53675;DHT22;39574;50.534;8.500;2023-01-08T17:19:06;9.4;99.9
53675;DHT22;39574;50.534;8.500;2023-01-08T17:24:16;9.4;99.9
53675;DHT22;39574;50.534;8.500;2023-01-08T17:29:20;9.3;99.9
53675;DHT22;39574;50.534;8.500;2023-01-08T17:34:30;9.3;99.9
53675;DHT22;39574;50.534;8.500;2023-01-08T17:44:01;9.3;99.9
53675;DHT22;39574;50.534;8.500;2023-01-08T17:49:10;9.4;99.9
53675;DHT22;39574;50.534;8.500;2023-01-08T17:54:14;9.4;99.9
53675;DHT22;39574;50.534;8.500;2023-01-08T17:59:23;9.4;99.9
53675;DHT22;39574;50.534;8.500;2023-01-08T18:04:25;9.4;99.9
53675;DHT22;39574;50.534;8.500;2023-01-08T18:13:56;9.4;99.9
53675;DHT22;39574;50.534;8.500;2023-01-08T18:18:56;9.4;99.9
53675;DHT22;39574;50.534;8.500;2023-01-08T18:24:05;9.3;99.9
53675;DHT22;39574;50.534;8.500;2023-01-08T18:29:07;9.3;99.9
53675;DHT22;39574;50.534;8.500;2023-01-08T18:34:18;9.3;99.9
53675;DHT22;39574;50.534;8.500;2023-01-08T18:39:22;9.3;99.9
53675;DHT22;39574;50.534;8.500;2023-01-08T18:48:45;9.4;99.9
53675;DHT22;39574;50.534;8.500;2023-01-08T18:53:46;9.5;99.9
53675;DHT22;39574;50.534;8.500;2023-01-08T18:58:55;9.5;99.9
53675;DHT22;39574;50.534;8.500;2023-01-08T19:03:56;9.6;99.9
53675;DHT22;39574;50.534;8.500;2023-01-08T19:09:00;9.6;99.9
53675;DHT22;39574;50.534;8.500;2023-01-08T19:14:11;9.6;99.9
53675;DHT22;39574;50.534;8.500;2023-01-08T19:23:42;9.6;99.9
53675;DHT22;39574;50.534;8.500;2023-01-08T19:28:52;9.7;99.9
53675;DHT22;39574;50.534;8.500;2023-01-08T19:33:56;9.7;99.9
53675;DHT22;39574;50.534;8.500;2023-01-08T19:38:56;9.7;99.9
53675;DHT22;39574;50.534;8.500;2023-01-08T19:44:05;9.7;99.9
53675;DHT22;39574;50.534;8.500;2023-01-08T19:53:51;9.7;99.9
53675;DHT22;39574;50.534;8.500;2023-01-08T19:59:00;9.7;99.9
53675;DHT22;39574;50.534;8.500;2023-01-08T20:04:03;9.7;99.9
53675;DHT22;39574;50.534;8.500;2023-01-08T20:13:14;9.7;99.9
53675;DHT22;39574;50.534;8.500;2023-01-08T20:18:49;9.8;99.9
53675;DHT22;39574;50.534;8.500;2023-01-08T20:28:12;9.9;99.9
53675;DHT22;39574;50.534;8.500;2023-01-08T20:33:29;9.8;99.9
53675;DHT22;39574;50.534;8.500;2023-01-08T20:38:43;9.8;99.9
53675;DHT22;39574;50.534;8.500;2023-01-08T20:43:43;9.7;99.9
53675;DHT22;39574;50.534;8.500;2023-01-08T20:48:51;9.7;99.9
53675;DHT22;39574;50.534;8.500;2023-01-08T20:53:58;9.7;99.9
53675;DHT22;39574;50.534;8.500;2023-01-08T21:03:22;9.7;99.9
53675;DHT22;39574;50.534;8.500;2023-01-08T21:08:32;9.7;99.9
53675;DHT22;39574;50.534;8.500;2023-01-08T21:13:34;9.7;99.9
53675;DHT22;39574;50.534;8.500;2023-01-08T21:18:48;9.7;99.9
53675;DHT22;39574;50.534;8.500;2023-01-08T21:28:29;9.7;99.9
53675;DHT22;39574;50.534;8.500;2023-01-08T21:33:34;9.6;99.9
53675;DHT22;39574;50.534;8.500;2023-01-08T21:38:48;9.6;99.9
53675;DHT22;39574;50.534;8.500;2023-01-08T21:48:14;9.6;99.9
53675;DHT22;39574;50.534;8.500;2023-01-08T21:53:14;9.6;99.9
53675;DHT22;39574;50.534;8.500;2023-01-08T21:58:22;9.6;99.9
53675;DHT22;39574;50.534;8.500;2023-01-08T22:03:26;9.6;99.9
53675;DHT22;39574;50.534;8.500;2023-01-08T22:08:37;9.6;99.9
53675;DHT22;39574;50.534;8.500;2023-01-08T22:18:19;9.6;99.9
53675;DHT22;39574;50.534;8.500;2023-01-08T22:23:19;9.6;99.9
53675;DHT22;39574;50.534;8.500;2023-01-08T22:28:19;9.6;99.9
53675;DHT22;39574;50.534;8.500;2023-01-08T22:33:33;9.6;99.9
53675;DHT22;39574;50.534;8.500;2023-01-08T22:43:14;9.6;99.9
53675;DHT22;39574;50.534;8.500;2023-01-08T22:48:19;9.6;99.9
53675;DHT22;39574;50.534;8.500;2023-01-08T22:53:32;9.6;99.9
53675;DHT22;39574;50.534;8.500;2023-01-08T23:03:10;9.6;99.9
53675;DHT22;39574;50.534;8.500;2023-01-08T23:08:11;9.5;99.9
53675;DHT22;39574;50.534;8.500;2023-01-08T23:13:15;9.4;99.9
53675;DHT22;39574;50.534;8.500;2023-01-08T23:18:26;9.4;99.9
53675;DHT22;39574;50.534;8.500;2023-01-08T23:28:05;9.3;99.9
53675;DHT22;39574;50.534;8.500;2023-01-08T23:33:11;9.3;99.9
53675;DHT22;39574;50.534;8.500;2023-01-08T23:38:19;9.3;99.9
53675;DHT22;39574;50.534;8.500;2023-01-08T23:43:24;9.3;99.9
53675;DHT22;39574;50.534;8.500;2023-01-08T23:52:49;9.4;99.9
53675;DHT22;39574;50.534;8.500;2023-01-08T23:58:00;9.4;99.9
